EGAE

City of Derry Airport

Derry, United Kingdom
METAR EGAE 191120Z 19016KT 9999 FEW017 07/04 Q0992
Observed Flight Rules
Dec-19 @ 11:20 UTC (37 minutes ago) Visual Flight Rules
Wind Visibility Clouds
190° at 16 knots 10,000+ meters
  • Few at 1,700' AGL
Temperatures Readings
Current 7°C / 45°F
Dewpoint 4°C / 39°F
Humidity 81%
Altimeter 29.29" Hg
Pressure 992 hPa
Elevation 9
METAR EGAE 191120Z 19016KT 9999 FEW017 07/04 Q0992
Observed Flight Rules
Dec-19 @ 11:20 UTC
(37 minutes ago)
VFR
Wind Visibility
190° at 16 knots 10,000+ meters
Clouds
  • Few at 1,700' AGL
Temperature Dewpoint
7°C / 45°F 4°C / 39°F
Humidity Altimeter Pressure
81% 29.29" Hg 992 hPa